sensor_id;sensor_type;location;lat;lon;timestamp;P1;durP1;ratioP1;P2;durP2;ratioP2
28431;SDS011;15664;51.302;7.744;2022-08-19T00:01:27;17.58;;;9.15;;
28431;SDS011;15664;51.302;7.744;2022-08-19T00:03:54;14.90;;;8.30;;
28431;SDS011;15664;51.302;7.744;2022-08-19T00:06:19;15.80;;;8.67;;
28431;SDS011;15664;51.302;7.744;2022-08-19T00:08:44;15.50;;;8.63;;
28431;SDS011;15664;51.302;7.744;2022-08-19T00:11:10;16.13;;;8.70;;
28431;SDS011;15664;51.302;7.744;2022-08-19T00:13:35;16.47;;;8.90;;
28431;SDS011;15664;51.302;7.744;2022-08-19T00:16:01;17.23;;;9.02;;
28431;SDS011;15664;51.302;7.744;2022-08-19T00:18:27;17.60;;;8.68;;
28431;SDS011;15664;51.302;7.744;2022-08-19T00:20:52;18.30;;;9.10;;
28431;SDS011;15664;51.302;7.744;2022-08-19T00:23:17;17.00;;;8.63;;
28431;SDS011;15664;51.302;7.744;2022-08-19T00:25:43;16.20;;;8.03;;
28431;SDS011;15664;51.302;7.744;2022-08-19T00:28:09;16.50;;;8.63;;
28431;SDS011;15664;51.302;7.744;2022-08-19T00:30:34;13.87;;;7.57;;
28431;SDS011;15664;51.302;7.744;2022-08-19T00:32:59;12.32;;;6.45;;
28431;SDS011;15664;51.302;7.744;2022-08-19T00:35:24;12.30;;;5.57;;
28431;SDS011;15664;51.302;7.744;2022-08-19T00:37:52;12.50;;;5.73;;
28431;SDS011;15664;51.302;7.744;2022-08-19T00:40:17;11.77;;;6.43;;
28431;SDS011;15664;51.302;7.744;2022-08-19T00:42:43;13.38;;;6.40;;
28431;SDS011;15664;51.302;7.744;2022-08-19T00:45:19;12.40;;;6.50;;
28431;SDS011;15664;51.302;7.744;2022-08-19T00:47:45;13.27;;;6.80;;
28431;SDS011;15664;51.302;7.744;2022-08-19T00:50:13;11.40;;;6.37;;
28431;SDS011;15664;51.302;7.744;2022-08-19T00:52:41;12.05;;;6.05;;
28431;SDS011;15664;51.302;7.744;2022-08-19T00:55:10;13.18;;;6.88;;
28431;SDS011;15664;51.302;7.744;2022-08-19T00:57:38;13.77;;;7.10;;
28431;SDS011;15664;51.302;7.744;2022-08-19T01:00:06;12.70;;;6.55;;
28431;SDS011;15664;51.302;7.744;2022-08-19T01:02:33;11.90;;;6.20;;
28431;SDS011;15664;51.302;7.744;2022-08-19T01:04:59;12.85;;;6.80;;
28431;SDS011;15664;51.302;7.744;2022-08-19T01:07:25;12.93;;;7.07;;
28431;SDS011;15664;51.302;7.744;2022-08-19T01:09:50;15.47;;;7.10;;
28431;SDS011;15664;51.302;7.744;2022-08-19T01:12:16;13.98;;;6.80;;
28431;SDS011;15664;51.302;7.744;2022-08-19T01:14:41;15.17;;;7.10;;
28431;SDS011;15664;51.302;7.744;2022-08-19T01:17:07;12.83;;;6.77;;
28431;SDS011;15664;51.302;7.744;2022-08-19T01:19:35;14.07;;;6.80;;
28431;SDS011;15664;51.302;7.744;2022-08-19T01:22:02;13.33;;;6.93;;
28431;SDS011;15664;51.302;7.744;2022-08-19T01:24:28;12.80;;;6.82;;
28431;SDS011;15664;51.302;7.744;2022-08-19T01:26:53;13.93;;;6.47;;
28431;SDS011;15664;51.302;7.744;2022-08-19T01:29:19;14.27;;;6.18;;
28431;SDS011;15664;51.302;7.744;2022-08-19T01:31:45;13.63;;;6.63;;
28431;SDS011;15664;51.302;7.744;2022-08-19T01:34:10;11.47;;;6.13;;
28431;SDS011;15664;51.302;7.744;2022-08-19T01:36:41;11.53;;;5.97;;
28431;SDS011;15664;51.302;7.744;2022-08-19T01:39:10;11.50;;;6.05;;
28431;SDS011;15664;51.302;7.744;2022-08-19T01:41:35;13.30;;;6.10;;
28431;SDS011;15664;51.302;7.744;2022-08-19T01:44:01;12.43;;;5.93;;
28431;SDS011;15664;51.302;7.744;2022-08-19T01:46:28;11.65;;;5.97;;
28431;SDS011;15664;51.302;7.744;2022-08-19T01:48:54;12.83;;;6.30;;
28431;SDS011;15664;51.302;7.744;2022-08-19T01:51:19;13.27;;;5.83;;
28431;SDS011;15664;51.302;7.744;2022-08-19T01:53:46;13.17;;;6.20;;
28431;SDS011;15664;51.302;7.744;2022-08-19T01:56:11;13.90;;;6.85;;
28431;SDS011;15664;51.302;7.744;2022-08-19T01:58:41;12.20;;;6.67;;
28431;SDS011;15664;51.302;7.744;2022-08-19T02:01:08;14.27;;;7.50;;
28431;SDS011;15664;51.302;7.744;2022-08-19T02:03:33;16.87;;;7.20;;
28431;SDS011;15664;51.302;7.744;2022-08-19T02:06:00;13.85;;;7.35;;
28431;SDS011;15664;51.302;7.744;2022-08-19T02:08:26;13.67;;;7.37;;
28431;SDS011;15664;51.302;7.744;2022-08-19T02:10:51;15.23;;;7.55;;
28431;SDS011;15664;51.302;7.744;2022-08-19T02:13:17;14.63;;;7.70;;
28431;SDS011;15664;51.302;7.744;2022-08-19T02:15:42;14.50;;;7.43;;
28431;SDS011;15664;51.302;7.744;2022-08-19T02:18:07;18.17;;;8.32;;
28431;SDS011;15664;51.302;7.744;2022-08-19T02:20:33;16.33;;;8.13;;
28431;SDS011;15664;51.302;7.744;2022-08-19T02:22:59;15.90;;;7.57;;
28431;SDS011;15664;51.302;7.744;2022-08-19T02:25:26;14.98;;;7.70;;
28431;SDS011;15664;51.302;7.744;2022-08-19T02:27:51;13.60;;;7.47;;
28431;SDS011;15664;51.302;7.744;2022-08-19T02:30:17;15.00;;;7.30;;
28431;SDS011;15664;51.302;7.744;2022-08-19T02:32:42;13.87;;;6.87;;
28431;SDS011;15664;51.302;7.744;2022-08-19T02:35:08;15.80;;;7.90;;
28431;SDS011;15664;51.302;7.744;2022-08-19T02:37:33;15.67;;;7.93;;
28431;SDS011;15664;51.302;7.744;2022-08-19T02:40:17;14.23;;;7.32;;
28431;SDS011;15664;51.302;7.744;2022-08-19T02:42:43;14.53;;;7.10;;
28431;SDS011;15664;51.302;7.744;2022-08-19T02:45:08;15.43;;;7.25;;
28431;SDS011;15664;51.302;7.744;2022-08-19T02:47:34;14.63;;;7.50;;
28431;SDS011;15664;51.302;7.744;2022-08-19T02:50:00;15.10;;;7.47;;
28431;SDS011;15664;51.302;7.744;2022-08-19T02:52:26;15.48;;;6.93;;
28431;SDS011;15664;51.302;7.744;2022-08-19T02:54:52;14.75;;;7.28;;
28431;SDS011;15664;51.302;7.744;2022-08-19T02:57:17;14.73;;;7.87;;
28431;SDS011;15664;51.302;7.744;2022-08-19T02:59:42;16.20;;;8.33;;
28431;SDS011;15664;51.302;7.744;2022-08-19T03:02:08;14.63;;;7.27;;
28431;SDS011;15664;51.302;7.744;2022-08-19T03:04:33;17.93;;;8.53;;
28431;SDS011;15664;51.302;7.744;2022-08-19T03:06:58;20.73;;;9.40;;
28431;SDS011;15664;51.302;7.744;2022-08-19T03:09:23;17.77;;;9.03;;
28431;SDS011;15664;51.302;7.744;2022-08-19T03:11:48;19.00;;;8.70;;
28431;SDS011;15664;51.302;7.744;2022-08-19T03:14:15;19.33;;;8.85;;
28431;SDS011;15664;51.302;7.744;2022-08-19T03:16:44;18.70;;;8.97;;
28431;SDS011;15664;51.302;7.744;2022-08-19T03:19:09;19.30;;;9.63;;
28431;SDS011;15664;51.302;7.744;2022-08-19T03:21:35;19.38;;;9.63;;
28431;SDS011;15664;51.302;7.744;2022-08-19T03:24:05;18.50;;;9.07;;
28431;SDS011;15664;51.302;7.744;2022-08-19T03:26:30;18.85;;;9.48;;
28431;SDS011;15664;51.302;7.744;2022-08-19T03:28:56;19.90;;;9.20;;
28431;SDS011;15664;51.302;7.744;2022-08-19T03:31:22;19.17;;;9.30;;
28431;SDS011;15664;51.302;7.744;2022-08-19T03:33:50;19.88;;;9.50;;
28431;SDS011;15664;51.302;7.744;2022-08-19T03:36:17;22.23;;;10.00;;
28431;SDS011;15664;51.302;7.744;2022-08-19T03:38:44;20.92;;;9.68;;
28431;SDS011;15664;51.302;7.744;2022-08-19T03:41:11;21.67;;;9.75;;
28431;SDS011;15664;51.302;7.744;2022-08-19T03:43:37;18.60;;;8.77;;
28431;SDS011;15664;51.302;7.744;2022-08-19T03:46:03;19.02;;;9.27;;
28431;SDS011;15664;51.302;7.744;2022-08-19T03:48:29;20.23;;;9.83;;
28431;SDS011;15664;51.302;7.744;2022-08-19T03:50:55;22.80;;;10.60;;
28431;SDS011;15664;51.302;7.744;2022-08-19T03:53:20;23.07;;;10.33;;
28431;SDS011;15664;51.302;7.744;2022-08-19T03:55:46;23.00;;;9.90;;
28431;SDS011;15664;51.302;7.744;2022-08-19T03:58:11;20.17;;;9.37;;
28431;SDS011;15664;51.302;7.744;2022-08-19T04:00:36;20.27;;;9.30;;
28431;SDS011;15664;51.302;7.744;2022-08-19T04:03:01;22.47;;;10.33;;
28431;SDS011;15664;51.302;7.744;2022-08-19T04:05:27;22.67;;;9.37;;
28431;SDS011;15664;51.302;7.744;2022-08-19T04:07:53;19.33;;;9.48;;
28431;SDS011;15664;51.302;7.744;2022-08-19T04:10:20;19.02;;;9.27;;
28431;SDS011;15664;51.302;7.744;2022-08-19T04:12:45;19.03;;;9.17;;
28431;SDS011;15664;51.302;7.744;2022-08-19T04:15:11;19.35;;;8.90;;
28431;SDS011;15664;51.302;7.744;2022-08-19T04:17:36;19.47;;;8.60;;
28431;SDS011;15664;51.302;7.744;2022-08-19T04:20:02;22.30;;;8.93;;
28431;SDS011;15664;51.302;7.744;2022-08-19T04:22:27;21.27;;;9.03;;
28431;SDS011;15664;51.302;7.744;2022-08-19T04:24:52;19.90;;;8.77;;
28431;SDS011;15664;51.302;7.744;2022-08-19T04:27:17;20.10;;;9.40;;
28431;SDS011;15664;51.302;7.744;2022-08-19T04:29:43;19.77;;;8.87;;
28431;SDS011;15664;51.302;7.744;2022-08-19T04:32:08;21.85;;;9.07;;
28431;SDS011;15664;51.302;7.744;2022-08-19T04:34:33;19.58;;;8.90;;
28431;SDS011;15664;51.302;7.744;2022-08-19T04:36:59;21.80;;;9.43;;
28431;SDS011;15664;51.302;7.744;2022-08-19T04:39:25;18.73;;;9.57;;
28431;SDS011;15664;51.302;7.744;2022-08-19T04:42:11;23.17;;;9.85;;
28431;SDS011;15664;51.302;7.744;2022-08-19T04:44:55;20.00;;;8.93;;
28431;SDS011;15664;51.302;7.744;2022-08-19T04:47:20;18.63;;;8.65;;
28431;SDS011;15664;51.302;7.744;2022-08-19T04:49:45;19.58;;;9.38;;
28431;SDS011;15664;51.302;7.744;2022-08-19T04:52:11;20.55;;;9.48;;
28431;SDS011;15664;51.302;7.744;2022-08-19T04:54:36;22.47;;;10.00;;
28431;SDS011;15664;51.302;7.744;2022-08-19T04:57:02;18.47;;;8.83;;
28431;SDS011;15664;51.302;7.744;2022-08-19T04:59:30;19.95;;;8.75;;
28431;SDS011;15664;51.302;7.744;2022-08-19T05:01:55;21.40;;;10.17;;
28431;SDS011;15664;51.302;7.744;2022-08-19T05:04:20;20.93;;;8.80;;
28431;SDS011;15664;51.302;7.744;2022-08-19T05:06:46;19.97;;;9.67;;
28431;SDS011;15664;51.302;7.744;2022-08-19T05:09:12;20.55;;;9.18;;
28431;SDS011;15664;51.302;7.744;2022-08-19T05:11:37;18.17;;;8.40;;
28431;SDS011;15664;51.302;7.744;2022-08-19T05:14:04;17.95;;;8.82;;
28431;SDS011;15664;51.302;7.744;2022-08-19T05:16:29;20.20;;;9.40;;
28431;SDS011;15664;51.302;7.744;2022-08-19T05:18:55;20.47;;;9.60;;
28431;SDS011;15664;51.302;7.744;2022-08-19T05:21:39;18.63;;;8.70;;
28431;SDS011;15664;51.302;7.744;2022-08-19T05:24:24;17.42;;;8.73;;
28431;SDS011;15664;51.302;7.744;2022-08-19T05:26:50;16.40;;;8.17;;
28431;SDS011;15664;51.302;7.744;2022-08-19T05:29:16;20.05;;;9.25;;
28431;SDS011;15664;51.302;7.744;2022-08-19T05:31:42;19.08;;;9.23;;
28431;SDS011;15664;51.302;7.744;2022-08-19T05:34:07;18.20;;;8.83;;
28431;SDS011;15664;51.302;7.744;2022-08-19T05:36:34;17.50;;;8.20;;
28431;SDS011;15664;51.302;7.744;2022-08-19T05:39:00;19.92;;;9.07;;
28431;SDS011;15664;51.302;7.744;2022-08-19T05:41:25;15.80;;;7.97;;
28431;SDS011;15664;51.302;7.744;2022-08-19T05:43:54;18.35;;;9.02;;
28431;SDS011;15664;51.302;7.744;2022-08-19T05:46:20;15.05;;;7.97;;
28431;SDS011;15664;51.302;7.744;2022-08-19T05:48:46;15.30;;;7.47;;
28431;SDS011;15664;51.302;7.744;2022-08-19T05:51:11;17.23;;;8.27;;
28431;SDS011;15664;51.302;7.744;2022-08-19T05:53:36;16.37;;;7.90;;
28431;SDS011;15664;51.302;7.744;2022-08-19T05:56:08;20.17;;;8.47;;
28431;SDS011;15664;51.302;7.744;2022-08-19T05:58:34;15.68;;;7.97;;
28431;SDS011;15664;51.302;7.744;2022-08-19T06:01:00;16.93;;;8.73;;
28431;SDS011;15664;51.302;7.744;2022-08-19T06:03:33;18.10;;;9.13;;
28431;SDS011;15664;51.302;7.744;2022-08-19T06:05:58;17.45;;;8.93;;
28431;SDS011;15664;51.302;7.744;2022-08-19T06:08:24;17.10;;;8.55;;
28431;SDS011;15664;51.302;7.744;2022-08-19T06:10:50;15.53;;;8.17;;
28431;SDS011;15664;51.302;7.744;2022-08-19T06:13:15;18.37;;;8.30;;
28431;SDS011;15664;51.302;7.744;2022-08-19T06:15:40;14.17;;;7.67;;
28431;SDS011;15664;51.302;7.744;2022-08-19T06:18:08;17.23;;;8.57;;
28431;SDS011;15664;51.302;7.744;2022-08-19T06:20:34;19.53;;;7.97;;
28431;SDS011;15664;51.302;7.744;2022-08-19T06:22:59;18.60;;;8.20;;
28431;SDS011;15664;51.302;7.744;2022-08-19T06:25:24;18.67;;;7.87;;
28431;SDS011;15664;51.302;7.744;2022-08-19T06:27:49;20.83;;;9.53;;
28431;SDS011;15664;51.302;7.744;2022-08-19T06:30:14;23.90;;;9.30;;
28431;SDS011;15664;51.302;7.744;2022-08-19T06:32:40;19.67;;;9.10;;
28431;SDS011;15664;51.302;7.744;2022-08-19T06:35:05;16.80;;;9.03;;
28431;SDS011;15664;51.302;7.744;2022-08-19T06:37:31;19.35;;;9.98;;
28431;SDS011;15664;51.302;7.744;2022-08-19T06:39:56;18.17;;;10.03;;
28431;SDS011;15664;51.302;7.744;2022-08-19T06:42:21;19.13;;;9.30;;
28431;SDS011;15664;51.302;7.744;2022-08-19T06:44:47;19.13;;;9.90;;
28431;SDS011;15664;51.302;7.744;2022-08-19T06:47:14;22.20;;;10.90;;
28431;SDS011;15664;51.302;7.744;2022-08-19T06:49:40;21.93;;;10.03;;
28431;SDS011;15664;51.302;7.744;2022-08-19T06:52:06;20.08;;;10.40;;
28431;SDS011;15664;51.302;7.744;2022-08-19T06:54:31;22.17;;;10.93;;
28431;SDS011;15664;51.302;7.744;2022-08-19T06:56:57;24.30;;;10.57;;
28431;SDS011;15664;51.302;7.744;2022-08-19T06:59:23;23.08;;;11.02;;
28431;SDS011;15664;51.302;7.744;2022-08-19T07:01:53;23.17;;;10.50;;
28431;SDS011;15664;51.302;7.744;2022-08-19T07:04:20;22.05;;;10.30;;
28431;SDS011;15664;51.302;7.744;2022-08-19T07:06:46;19.88;;;9.68;;
28431;SDS011;15664;51.302;7.744;2022-08-19T07:09:13;17.48;;;9.70;;
28431;SDS011;15664;51.302;7.744;2022-08-19T07:11:43;17.05;;;8.75;;
28431;SDS011;15664;51.302;7.744;2022-08-19T07:14:08;21.83;;;9.40;;
28431;SDS011;15664;51.302;7.744;2022-08-19T07:16:34;35.47;;;10.50;;
28431;SDS011;15664;51.302;7.744;2022-08-19T07:18:59;34.67;;;10.27;;
28431;SDS011;15664;51.302;7.744;2022-08-19T07:21:26;20.07;;;9.20;;
28431;SDS011;15664;51.302;7.744;2022-08-19T07:23:53;20.88;;;9.80;;
28431;SDS011;15664;51.302;7.744;2022-08-19T07:26:20;17.63;;;9.07;;
28431;SDS011;15664;51.302;7.744;2022-08-19T07:28:46;18.75;;;9.63;;
28431;SDS011;15664;51.302;7.744;2022-08-19T07:31:12;20.77;;;9.38;;
28431;SDS011;15664;51.302;7.744;2022-08-19T07:33:38;20.13;;;9.93;;
28431;SDS011;15664;51.302;7.744;2022-08-19T07:36:04;18.77;;;8.50;;
28431;SDS011;15664;51.302;7.744;2022-08-19T07:38:30;16.35;;;8.43;;
28431;SDS011;15664;51.302;7.744;2022-08-19T07:40:56;16.40;;;8.77;;
28431;SDS011;15664;51.302;7.744;2022-08-19T07:43:21;17.60;;;8.40;;
28431;SDS011;15664;51.302;7.744;2022-08-19T07:45:50;16.58;;;8.52;;
28431;SDS011;15664;51.302;7.744;2022-08-19T07:48:16;17.20;;;8.43;;
28431;SDS011;15664;51.302;7.744;2022-08-19T07:50:41;15.23;;;8.30;;
28431;SDS011;15664;51.302;7.744;2022-08-19T07:53:06;16.37;;;8.83;;
28431;SDS011;15664;51.302;7.744;2022-08-19T07:55:31;16.83;;;8.93;;
28431;SDS011;15664;51.302;7.744;2022-08-19T07:57:57;16.57;;;8.47;;
28431;SDS011;15664;51.302;7.744;2022-08-19T08:00:22;19.90;;;10.30;;
28431;SDS011;15664;51.302;7.744;2022-08-19T08:02:47;21.87;;;9.67;;
28431;SDS011;15664;51.302;7.744;2022-08-19T08:05:12;20.63;;;10.70;;
28431;SDS011;15664;51.302;7.744;2022-08-19T08:07:56;17.58;;;9.07;;
28431;SDS011;15664;51.302;7.744;2022-08-19T08:10:40;19.48;;;10.13;;
28431;SDS011;15664;51.302;7.744;2022-08-19T08:13:05;18.42;;;9.38;;
28431;SDS011;15664;51.302;7.744;2022-08-19T08:15:31;19.23;;;10.30;;
28431;SDS011;15664;51.302;7.744;2022-08-19T08:17:56;19.27;;;9.57;;
28431;SDS011;15664;51.302;7.744;2022-08-19T08:20:22;21.05;;;10.30;;
28431;SDS011;15664;51.302;7.744;2022-08-19T08:22:47;21.73;;;11.23;;
28431;SDS011;15664;51.302;7.744;2022-08-19T08:25:39;21.97;;;10.97;;
28431;SDS011;15664;51.302;7.744;2022-08-19T08:28:04;22.10;;;10.27;;
28431;SDS011;15664;51.302;7.744;2022-08-19T08:30:30;21.43;;;11.00;;
28431;SDS011;15664;51.302;7.744;2022-08-19T08:32:57;20.27;;;11.20;;
28431;SDS011;15664;51.302;7.744;2022-08-19T08:35:22;17.80;;;9.97;;
28431;SDS011;15664;51.302;7.744;2022-08-19T08:37:49;20.70;;;10.80;;
28431;SDS011;15664;51.302;7.744;2022-08-19T08:43:44;17.30;;;8.95;;
28431;SDS011;15664;51.302;7.744;2022-08-19T08:46:04;20.83;;;10.33;;
28431;SDS011;15664;51.302;7.744;2022-08-19T08:50:56;15.98;;;9.38;;
28431;SDS011;15664;51.302;7.744;2022-08-19T08:53:22;17.40;;;9.25;;
28431;SDS011;15664;51.302;7.744;2022-08-19T08:55:48;15.17;;;9.27;;
28431;SDS011;15664;51.302;7.744;2022-08-19T08:58:14;16.57;;;9.50;;
28431;SDS011;15664;51.302;7.744;2022-08-19T09:00:46;15.15;;;9.57;;
28431;SDS011;15664;51.302;7.744;2022-08-19T09:03:29;19.40;;;11.48;;
28431;SDS011;15664;51.302;7.744;2022-08-19T09:06:43;16.63;;;11.57;;
28431;SDS011;15664;51.302;7.744;2022-08-19T09:11:19;17.35;;;10.70;;
28431;SDS011;15664;51.302;7.744;2022-08-19T09:16:19;16.42;;;9.88;;
28431;SDS011;15664;51.302;7.744;2022-08-19T09:18:50;14.93;;;8.93;;
28431;SDS011;15664;51.302;7.744;2022-08-19T09:21:19;13.67;;;7.87;;
28431;SDS011;15664;51.302;7.744;2022-08-19T09:23:45;14.27;;;8.07;;
28431;SDS011;15664;51.302;7.744;2022-08-19T09:26:12;15.67;;;8.37;;
28431;SDS011;15664;51.302;7.744;2022-08-19T09:28:41;13.02;;;8.82;;
28431;SDS011;15664;51.302;7.744;2022-08-19T09:31:10;14.63;;;8.13;;
28431;SDS011;15664;51.302;7.744;2022-08-19T09:33:35;16.83;;;9.70;;
28431;SDS011;15664;51.302;7.744;2022-08-19T09:36:02;15.73;;;10.27;;
28431;SDS011;15664;51.302;7.744;2022-08-19T09:38:28;18.80;;;11.98;;
28431;SDS011;15664;51.302;7.744;2022-08-19T09:40:53;18.27;;;9.70;;
28431;SDS011;15664;51.302;7.744;2022-08-19T09:43:18;17.60;;;10.67;;
28431;SDS011;15664;51.302;7.744;2022-08-19T09:45:43;14.93;;;10.33;;
28431;SDS011;15664;51.302;7.744;2022-08-19T09:48:09;18.27;;;10.23;;
28431;SDS011;15664;51.302;7.744;2022-08-19T09:50:34;16.73;;;8.77;;
28431;SDS011;15664;51.302;7.744;2022-08-19T09:53:03;13.33;;;8.73;;
28431;SDS011;15664;51.302;7.744;2022-08-19T09:55:28;13.53;;;8.70;;
28431;SDS011;15664;51.302;7.744;2022-08-19T09:57:53;17.00;;;10.73;;
28431;SDS011;15664;51.302;7.744;2022-08-19T10:00:19;21.67;;;10.75;;
28431;SDS011;15664;51.302;7.744;2022-08-19T10:02:45;18.97;;;9.60;;
28431;SDS011;15664;51.302;7.744;2022-08-19T10:05:10;14.63;;;8.70;;
28431;SDS011;15664;51.302;7.744;2022-08-19T10:07:54;10.95;;;6.80;;
28431;SDS011;15664;51.302;7.744;2022-08-19T10:10:19;9.90;;;5.57;;
28431;SDS011;15664;51.302;7.744;2022-08-19T10:12:44;9.63;;;5.43;;
28431;SDS011;15664;51.302;7.744;2022-08-19T10:15:12;9.93;;;6.45;;
28431;SDS011;15664;51.302;7.744;2022-08-19T10:17:38;10.23;;;5.85;;
28431;SDS011;15664;51.302;7.744;2022-08-19T10:20:03;13.80;;;8.23;;
28431;SDS011;15664;51.302;7.744;2022-08-19T10:22:29;11.93;;;8.07;;
28431;SDS011;15664;51.302;7.744;2022-08-19T10:24:54;14.00;;;7.80;;
28431;SDS011;15664;51.302;7.744;2022-08-19T10:27:20;11.40;;;6.60;;
28431;SDS011;15664;51.302;7.744;2022-08-19T10:29:45;9.60;;;6.27;;
28431;SDS011;15664;51.302;7.744;2022-08-19T10:32:12;8.85;;;5.60;;
28431;SDS011;15664;51.302;7.744;2022-08-19T10:34:38;8.87;;;6.00;;
28431;SDS011;15664;51.302;7.744;2022-08-19T10:37:04;8.63;;;5.75;;
28431;SDS011;15664;51.302;7.744;2022-08-19T10:39:31;12.68;;;7.43;;
28431;SDS011;15664;51.302;7.744;2022-08-19T10:41:57;12.50;;;7.70;;
28431;SDS011;15664;51.302;7.744;2022-08-19T10:44:22;12.88;;;8.25;;
28431;SDS011;15664;51.302;7.744;2022-08-19T10:46:50;12.32;;;7.85;;
28431;SDS011;15664;51.302;7.744;2022-08-19T10:49:17;14.25;;;8.50;;
28431;SDS011;15664;51.302;7.744;2022-08-19T10:51:44;12.13;;;7.93;;
28431;SDS011;15664;51.302;7.744;2022-08-19T10:54:28;10.60;;;7.35;;
28431;SDS011;15664;51.302;7.744;2022-08-19T10:57:13;9.98;;;6.65;;
28431;SDS011;15664;51.302;7.744;2022-08-19T10:59:38;10.70;;;7.38;;
28431;SDS011;15664;51.302;7.744;2022-08-19T11:02:05;10.00;;;6.53;;
28431;SDS011;15664;51.302;7.744;2022-08-19T11:04:30;9.73;;;6.32;;
28431;SDS011;15664;51.302;7.744;2022-08-19T11:06:56;8.75;;;5.85;;
28431;SDS011;15664;51.302;7.744;2022-08-19T11:09:23;11.07;;;7.13;;
28431;SDS011;15664;51.302;7.744;2022-08-19T11:11:54;10.32;;;7.50;;
28431;SDS011;15664;51.302;7.744;2022-08-19T11:14:21;11.80;;;7.23;;
28431;SDS011;15664;51.302;7.744;2022-08-19T11:16:47;12.95;;;8.13;;
28431;SDS011;15664;51.302;7.744;2022-08-19T11:19:13;11.80;;;8.05;;
28431;SDS011;15664;51.302;7.744;2022-08-19T11:21:42;12.27;;;8.20;;
28431;SDS011;15664;51.302;7.744;2022-08-19T11:24:09;12.05;;;8.50;;
28431;SDS011;15664;51.302;7.744;2022-08-19T11:26:35;13.55;;;8.68;;
28431;SDS011;15664;51.302;7.744;2022-08-19T11:29:02;15.02;;;9.90;;
28431;SDS011;15664;51.302;7.744;2022-08-19T11:31:29;16.83;;;12.07;;
28431;SDS011;15664;51.302;7.744;2022-08-19T11:33:59;16.83;;;11.70;;
28431;SDS011;15664;51.302;7.744;2022-08-19T11:36:25;13.55;;;10.45;;
28431;SDS011;15664;51.302;7.744;2022-08-19T11:38:51;14.75;;;10.98;;
28431;SDS011;15664;51.302;7.744;2022-08-19T11:41:17;16.73;;;11.33;;
28431;SDS011;15664;51.302;7.744;2022-08-19T11:43:42;17.90;;;12.05;;
28431;SDS011;15664;51.302;7.744;2022-08-19T11:46:08;20.07;;;12.63;;
28431;SDS011;15664;51.302;7.744;2022-08-19T11:48:35;19.95;;;12.70;;
28431;SDS011;15664;51.302;7.744;2022-08-19T11:51:02;17.27;;;11.17;;
28431;SDS011;15664;51.302;7.744;2022-08-19T11:53:30;17.25;;;11.25;;
28431;SDS011;15664;51.302;7.744;2022-08-19T11:55:56;17.60;;;10.83;;
28431;SDS011;15664;51.302;7.744;2022-08-19T11:58:21;16.97;;;11.23;;
28431;SDS011;15664;51.302;7.744;2022-08-19T12:00:46;15.07;;;9.93;;
28431;SDS011;15664;51.302;7.744;2022-08-19T12:03:12;22.97;;;14.43;;
28431;SDS011;15664;51.302;7.744;2022-08-19T12:05:38;14.85;;;9.95;;
28431;SDS011;15664;51.302;7.744;2022-08-19T12:08:04;15.25;;;10.65;;
28431;SDS011;15664;51.302;7.744;2022-08-19T12:10:29;13.48;;;9.00;;
28431;SDS011;15664;51.302;7.744;2022-08-19T12:12:54;12.93;;;9.07;;
28431;SDS011;15664;51.302;7.744;2022-08-19T12:15:19;19.63;;;13.13;;
28431;SDS011;15664;51.302;7.744;2022-08-19T12:17:45;20.97;;;13.70;;
28431;SDS011;15664;51.302;7.744;2022-08-19T12:20:10;18.90;;;12.57;;
28431;SDS011;15664;51.302;7.744;2022-08-19T12:22:36;15.70;;;11.48;;
28431;SDS011;15664;51.302;7.744;2022-08-19T12:25:02;14.60;;;9.10;;
28431;SDS011;15664;51.302;7.744;2022-08-19T12:27:27;17.45;;;11.55;;
28431;SDS011;15664;51.302;7.744;2022-08-19T12:29:52;17.07;;;12.13;;
28431;SDS011;15664;51.302;7.744;2022-08-19T12:32:17;15.50;;;10.87;;
28431;SDS011;15664;51.302;7.744;2022-08-19T12:34:43;16.58;;;10.95;;
28431;SDS011;15664;51.302;7.744;2022-08-19T12:37:08;15.55;;;10.60;;
28431;SDS011;15664;51.302;7.744;2022-08-19T12:39:34;16.00;;;9.38;;
28431;SDS011;15664;51.302;7.744;2022-08-19T12:42:00;16.13;;;9.90;;
28431;SDS011;15664;51.302;7.744;2022-08-19T12:44:25;14.27;;;9.07;;
28431;SDS011;15664;51.302;7.744;2022-08-19T12:46:50;12.53;;;8.50;;
28431;SDS011;15664;51.302;7.744;2022-08-19T12:49:15;13.40;;;8.20;;
28431;SDS011;15664;51.302;7.744;2022-08-19T12:51:41;11.17;;;6.77;;
28431;SDS011;15664;51.302;7.744;2022-08-19T12:54:06;12.95;;;6.97;;
28431;SDS011;15664;51.302;7.744;2022-08-19T12:56:31;10.83;;;6.40;;
28431;SDS011;15664;51.302;7.744;2022-08-19T12:59:00;10.33;;;6.23;;
28431;SDS011;15664;51.302;7.744;2022-08-19T13:01:25;9.85;;;6.25;;
28431;SDS011;15664;51.302;7.744;2022-08-19T13:03:50;12.67;;;7.10;;
28431;SDS011;15664;51.302;7.744;2022-08-19T13:06:18;11.90;;;6.88;;
28431;SDS011;15664;51.302;7.744;2022-08-19T13:08:43;12.97;;;7.30;;
28431;SDS011;15664;51.302;7.744;2022-08-19T13:11:10;9.93;;;6.50;;
28431;SDS011;15664;51.302;7.744;2022-08-19T13:13:37;10.68;;;6.32;;
28431;SDS011;15664;51.302;7.744;2022-08-19T13:16:02;9.13;;;6.00;;
28431;SDS011;15664;51.302;7.744;2022-08-19T13:18:28;9.57;;;5.85;;
28431;SDS011;15664;51.302;7.744;2022-08-19T13:20:53;10.03;;;6.60;;
28431;SDS011;15664;51.302;7.744;2022-08-19T13:23:19;9.17;;;5.67;;
28431;SDS011;15664;51.302;7.744;2022-08-19T13:25:44;9.80;;;6.40;;
28431;SDS011;15664;51.302;7.744;2022-08-19T13:28:09;10.27;;;6.40;;
28431;SDS011;15664;51.302;7.744;2022-08-19T13:30:34;9.17;;;5.70;;
28431;SDS011;15664;51.302;7.744;2022-08-19T13:33:18;9.25;;;5.43;;
28431;SDS011;15664;51.302;7.744;2022-08-19T13:35:48;11.87;;;6.37;;
28431;SDS011;15664;51.302;7.744;2022-08-19T13:38:15;10.10;;;6.05;;
28431;SDS011;15664;51.302;7.744;2022-08-19T13:40:41;9.40;;;6.32;;
28431;SDS011;15664;51.302;7.744;2022-08-19T13:43:07;10.63;;;6.73;;
28431;SDS011;15664;51.302;7.744;2022-08-19T13:45:33;9.00;;;5.95;;
28431;SDS011;15664;51.302;7.744;2022-08-19T13:47:59;10.57;;;6.95;;
28431;SDS011;15664;51.302;7.744;2022-08-19T13:50:26;11.37;;;7.83;;
28431;SDS011;15664;51.302;7.744;2022-08-19T13:52:52;11.93;;;7.57;;
28431;SDS011;15664;51.302;7.744;2022-08-19T13:55:17;13.27;;;7.82;;
28431;SDS011;15664;51.302;7.744;2022-08-19T13:57:42;11.52;;;7.68;;
28431;SDS011;15664;51.302;7.744;2022-08-19T14:00:12;14.17;;;7.67;;
28431;SDS011;15664;51.302;7.744;2022-08-19T14:02:38;13.90;;;8.40;;
28431;SDS011;15664;51.302;7.744;2022-08-19T14:05:04;13.38;;;9.02;;
28431;SDS011;15664;51.302;7.744;2022-08-19T14:07:30;16.38;;;9.88;;
28431;SDS011;15664;51.302;7.744;2022-08-19T14:09:55;13.80;;;9.37;;
28431;SDS011;15664;51.302;7.744;2022-08-19T14:12:21;12.43;;;8.00;;
28431;SDS011;15664;51.302;7.744;2022-08-19T14:14:46;11.80;;;7.97;;
28431;SDS011;15664;51.302;7.744;2022-08-19T14:17:12;11.13;;;7.03;;
28431;SDS011;15664;51.302;7.744;2022-08-19T14:19:37;13.90;;;8.00;;
28431;SDS011;15664;51.302;7.744;2022-08-19T14:22:02;13.43;;;9.47;;
28431;SDS011;15664;51.302;7.744;2022-08-19T14:24:27;13.70;;;9.10;;
28431;SDS011;15664;51.302;7.744;2022-08-19T14:26:52;12.80;;;8.97;;
28431;SDS011;15664;51.302;7.744;2022-08-19T14:29:18;13.30;;;9.60;;
28431;SDS011;15664;51.302;7.744;2022-08-19T14:31:43;12.63;;;9.00;;
28431;SDS011;15664;51.302;7.744;2022-08-19T14:34:09;13.87;;;9.23;;
28431;SDS011;15664;51.302;7.744;2022-08-19T14:36:35;11.93;;;8.82;;
28431;SDS011;15664;51.302;7.744;2022-08-19T14:39:00;12.70;;;8.93;;
28431;SDS011;15664;51.302;7.744;2022-08-19T14:41:26;12.13;;;8.10;;